CheckWX is a tool to help pilots better visualize weather data.  It is not intended as a substitute for an official pre-flight weather briefing.

12:48:56 UTC

KTWF TAF
Joslin Field - Magic Valley Regional Airport
Twin Falls, Idaho, USA
KTWF 261125Z 2612/2712 09006KT P6SM BKN250 FM261900 27010KT P6SM OVC200 FM270300 22008KT P6SM OVC080

Mar-26@
12:00 UTC

Mar-26 @ 12:00 UTC

Mar-26@
19:00 UTC

Mar-26 @ 19:00 UTC

KTWF 261125Z 2612/2712 09006KT P6SM BKN250
Wind
  • 090° at 6 KTS
Cloud Levels
  • Broken at 25,000' AGL

Mar-26@
19:00 UTC

Mar-26 @ 19:00 UTC

Mar-27@
03:00 UTC

Mar-27 @ 03:00 UTC

FM261900 27010KT P6SM OVC200

From

From Standard forecast or significant change

Wind
  • 270° at 10 KTS
Cloud Levels
  • Overcast at 20,000' AGL

Mar-27@
03:00 UTC

Mar-27 @ 03:00 UTC

Mar-27@
12:00 UTC

Mar-27 @ 12:00 UTC

FM270300 22008KT P6SM OVC080

From

From Standard forecast or significant change

Wind
  • 220° at 8 KTS
Cloud Levels
  • Overcast at 8,000' AGL